Frying Pan Shoals, NC (41013)

Conditions for Sunday

Daily
Weekly
Monthly
Marine Data Graph

Marine & Boating Location Search

Enter a coastal zip code for marine weather.

General Information

Location: 33.436 North -77.743 West
Buoy Type: 2.3-meter foam discus buoy
Buoy Hull: 2.3D01
Payload: SCOOP payload
Owned by: NDBC
Windspeed: Measured by obtained from anemometer
Sea Surface: Measured by Intake
Note: Right whales are active off NC from November to April. Speed restrictions of 10 knots apply to vessels 65 feet or greater in specific areas and times along the mid-Atlantic coast. To learn more about right whales and rules protecting them, go to: http://www.nmfs.noaa.gov/pr/shipstrike/

Weather and Wave Data

Time Temp Humidity Wind Dominant Wave Wind Wave Wave Swell Pressure
  Air
(°F)
Water
(°F)
  Dir Speed
(kts)
Speed
(mph)
Period
(sec)
Height
(ft)
Range
(ft)
Period
(sec)
Height
(ft)
Range
(ft)
Period
(sec)
Height
(ft)
Range
(ft)
Atmo.
(in)
Tend.
(in)
20:10 74 79 75 SE 23.3 26.8 - - - - - - 29.93 -
20:30 74 79 73 SE 23.3 26.8 - - - - - - 29.92 -
20:40 74 79 76 SE 23.3 26.8 - - - - - - 29.92 -
20:50 74 79 76 SE 25.3 29.1 6 5.58 exactly 5.6 6 4.92 4.10 - 5.74 - - - 29.92 -
21:00 74
-
77 SE 23.3 26.8 - - - - - - 29.91 -0.05
21:10 74 79 78 ESE 25.3 29.1 - - - - - - 29.90 -
21:20 75 79 76 SE 25.3 29.1 - - - - - - 29.91 -
21:30 75 79 76 SE 23.3 26.8 - - - - - - 29.91 -
21:50 75 79 78 SE 23.3 26.8 6 6.56 exactly 6.6 6 6.56 5.74 - 7.38 - - - 29.91 -
22:10 76 79 75 SE 23.3 26.8 - - - - - - 29.89 -
22:20 76 79 75 SE 25.3 29.1 - - - - - - 29.89 -
23:10 76 79 75 SE 25.3 29.1 - - - - - - 29.88 -
23:40 75 79 81 SE 27.2 31.3 - - - - - - 29.86 -
23:50 75 79 81 SE 25.3 29.1 7 7.87 exactly 7.9 7 8.20 7.38 - 9.02 - - - 29.86 -
00:10 75 79 83 SE 27.2 31.3 - - - - - - 29.85 -
00:20 75 79 83 SE 27.2 31.3 - - - - - - 29.84 -
00:30 75
-
83 SE 25.3 29.1 - - - - - - 29.83 -
00:40 75 79 84 SE 25.3 29.1 - - - - - - 29.83 -
01:30 76 79 83 SE 27.2 31.3 - - - - - - 29.79 -
01:40 76 79 84 SE 27.2 31.3 - - - - - - 29.79 -
01:50 76 79 83 SE 29.2 33.6 7 10.17 exactly 10.2 7 9.84 9.02 - 10.66 - - - 29.79 -
02:20 76 79 86 SE 27.2 31.3 - - - - - - 29.77 -
02:30 76 79 86 SE 31.1 35.8 - - - - - - 29.76 -
02:40 76 79 87 SE 29.2 33.6 - - - - - - 29.75 -
03:20 76 79 86 SE 31.1 35.8 - - - - - - 29.73 -
03:30 76 79 85 SE 31.1 35.8 - - - - - - 29.73 -
03:50 76 79 86 SSE 29.2 33.6 8 11.81 exactly 11.8 8 11.48 10.66 - 12.30 - - - 29.72 -
04:10 75 79 89 SE 27.2 31.3 - - - - - - 29.71 -
04:20 75 79 90 SE 21.4 24.6 - - - - - - 29.70 -
04:30 75 79 92 SE 27.2 31.3 - - - - - - 29.69 -
04:40 76 79 90 SE 33.1 38.0 - - - - - - 29.73 -
04:50 76 79 91 SE 27.2 31.3 9 11.81 exactly 11.8 9 11.48 10.66 - 12.30 15 1.64 0.82 - 2.46 29.70 -
05:10 76 79 94 South 21.4 24.6 - - - - - - 29.68 -
05:20 77 79 93 South 25.3 29.1 - - - - - - 29.68 -
05:30 76 79 93 SSE 27.2 31.3 - - - - - - 29.69 -
05:40 76 79 94 South 13.6 15.7 - - - - - - 29.67 -
05:50 76 78 94 WSW 9.7 11.2 8 10.83 exactly 10.8 5 6.56 5.74 - 7.38 8 8.20 7.38 - 9.02 29.67 -
06:30 78 79 91 South 23.3 26.8 - - - - - - 29.68 -
07:40 80 79 81 SW 21.4 24.6 - - - - - - 29.68 -
07:50 80 79 80 SW 21.4 24.6 9 11.81 exactly 11.8 9 11.48 10.66 - 12.30 - - - 29.69 -
08:10 80 79 81 SW 21.4 24.6 - - - - - - 29.70 -
08:20 79
-
83 SW 21.4 24.6 - - - - - - 29.70 -
08:30 79 79 82 SW 23.3 26.8 - - - - - - 29.70 -
08:40 79 79 83 SW 21.4 24.6 - - - - - - 29.71 -
09:10 78 79 86 SW 21.4 24.6 - - - - - - 29.71 -
09:30 79 79 79 SW 23.3 26.8 - - - - - - 29.71 -
10:00 78
-
79 SW 25.3 29.1 - - - - - - 29.72 -0.18
10:20 79 79 72 SW 27.2 31.3 - - - - - - 29.71 -
10:30 79 79 72 SW 25.3 29.1 - - - - - - 29.72 -
10:40 79 79 73 SW 23.3 26.8 - - - - - - 29.72 -
11:40 76 79 82 WSW 21.4 24.6 - - - - - - 29.73 -
11:50 76 79 83 SW 21.4 24.6 9 11.15 exactly 11.2 7 8.20 7.38 - 9.02 9 6.56 5.74 - 7.38 29.72 -
12:00 76
-
82 WSW 23.3 26.8 - - - - - - 29.72 +0.02
12:10 76 79 82 WSW 21.4 24.6 - - - - - - 29.72 -
12:20 76 79 80 WSW 23.3 26.8 - - - - - - 29.72 -
12:50 75 79 80 WSW 23.3 26.8 9 10.50 exactly 10.5 7 8.20 7.38 - 9.02 9 6.56 5.74 - 7.38 29.72 -
13:10 74 79 82 WSW 21.4 24.6 - - - - - - 29.72 -
13:20 74
-
82 WSW 23.3 26.8 - - - - - - 29.72 -
13:40
-
-
WSW 23.3 26.8 - - - - - - 29.72 -
13:50 74 79 79 WSW 21.4 24.6 8 9.51 exactly 9.5 8 8.20 7.38 - 9.02 15 4.92 4.10 - 5.74 29.72 -
14:00 74
-
80 WSW 23.3 26.8 - - - - - - 29.72 -
14:20 74 79 79 WSW 23.3 26.8 - - - - - - 29.71 -
14:30 73 79 84 WSW 23.3 26.8 - - - - - - 29.72 -
15:20 73 79 82 West 23.3 26.8 - - - - - - 29.73 -
15:30 73 79 82 West 21.4 24.6 - - - - - - 29.73 -
15:40 72 79 86 West 23.3 26.8 - - - - - - 29.71 -
15:50 72 79 86 West 23.3 26.8 9 9.51 exactly 9.5 7 8.20 7.38 - 9.02 9 6.56 5.74 - 7.38 29.74 -
16:10 72 78 83 West 23.3 26.8 - - - - - - 29.75 -
16:20 72 78 81 West 23.3 26.8 - - - - - - 29.76 -
16:30 72 78 80 West 23.3 26.8 - - - - - - 29.76 -
16:40 71 78 84 West 21.4 24.6 - - - - - - 29.77 -
17:00 71
-
80 West 21.4 24.6 - - - - - - 29.78 +0.06
17:10 71
-
80 WNW 21.4 24.6 - - - - - - 29.78 -
17:20 71 78 79 West 21.4 24.6 - - - - - - 29.79 -
17:40 70 78 81 WNW 21.4 24.6 - - - - - - 29.80 -
17:50 69 78 82 West 19.4 22.4 9 8.86 exactly 8.9 5 6.56 5.74 - 7.38 9 6.56 5.74 - 7.38 29.80 -
18:20 69 78 79 West 21.4 24.6 - - - - - - 29.82 -
18:30 68 78 82 WNW 21.4 24.6 - - - - - - 29.82 -
18:40 68
-
80 WNW 21.4 24.6 - - - - - - 29.82 -
19:10 68 78 79 WNW 21.4 24.6 - - - - - - 29.84 -
19:20 67 78 82 WNW 21.4 24.6 - - - - - - 29.84 -
19:30 68 78 78 WNW 19.4 22.4 - - - - - - 29.85 -
19:40 68 78 78 WNW 21.4 24.6 - - - - - - 29.85 -
19:50 67 78 80 WNW 21.4 24.6 9 8.53 exactly 8.5 7 8.20 7.38 - 9.02 9 4.92 4.10 - 5.74 29.86 -
20:00 67
-
79 WNW 21.4 24.6 - - - - - - 29.86 +0.09
20:20 68 78 76 NW 21.4 24.6 - - - - - - 29.87 -
20:30 68 78 76 NW 21.4 24.6 - - - - - - 29.88 -
20:40 67 78 79 NW 21.4 24.6 - - - - - - 29.88 -
20:50 67 78 79 NW 21.4 24.6 9 8.86 exactly 8.9 5 8.20 7.38 - 9.02 9 4.92 4.10 - 5.74 29.89 -
21:00 67 78 79 NW 21.4 24.6 - - - - - - 29.89 +0.09
21:10 68 78 75 NW 21.4 24.6 - - - - - - 29.88 -
21:20 68 78 76 NW 19.4 22.4 - - - - - - 29.90 -
21:40 68 78 76 NW 21.4 24.6 - - - - - - 29.90 -
21:50 68 78 78 NW 19.4 22.4 6 8.20 exactly 8.2 6 8.20 7.38 - 9.02 14 3.28 2.46 - 4.10 29.91 -
22:20 68 78 76 NW 19.4 22.4 - - - - - - 29.91 -
22:30 68 78 76 NW 19.4 22.4 - - - - - - 29.92 -
23:20 69 78 76 NW 17.5 20.1 - - - - - - 29.93 -
23:30 68 78 76 NW 19.4 22.4 - - - - - - 29.93 -
23:40 68 78 78 NW 19.4 22.4 - - - - - - 29.93 -
23:50 68 78 78 NW 19.4 22.4 8 6.89 exactly 6.9 8 6.56 5.74 - 7.38 14 1.64 0.82 - 2.46 29.93 -
00:20 68 78 77 NNW 19.4 22.4 - - - - - - 29.94 -
00:40 68 78 77 NNW 17.5 20.1 - - - - - - 29.94 -
01:00 68
-
77 NNW 17.5 20.1 - - - - - - 29.94 +0.04
01:10 68 78 77 NNW 17.5 20.1 - - - - - - 29.94 -
01:20 68 78 77 NNW 15.6 17.9 - - - - - - 29.95 -
01:30 67 78 80 NNW 15.6 17.9 - - - - - - 29.95 -
01:40 68 78 77 NNW 15.6 17.9 - - - - - - 29.95 -
01:50 67 78 79 NNW 15.6 17.9 8 6.23 exactly 6.2 5 4.92 4.10 - 5.74 8 4.92 4.10 - 5.74 29.95 -
02:10 67 78 80 NNW 15.6 17.9 - - - - - - 29.95 -
02:30 67 78 80 NNW 11.7 13.4 - - - - - - 29.95 -
02:40 67 78 81 NNW 11.7 13.4 - - - - - - 29.95 -
02:50 67 78 80 NNW 11.7 13.4 8 5.91 exactly 5.9 5 3.28 2.46 - 4.10 8 4.92 4.10 - 5.74 29.95 -
03:20 67
-
79 North 11.7 13.4 - - - - - - 29.96 -
03:30 67 78 77 NNW 9.7 11.2 - - - - - - 29.96 -
03:40 67 78 77 North 9.7 11.2 - - - - - - 29.96 -
03:50 67 78 77 North 11.7 13.4 8 5.58 exactly 5.6 5 3.28 2.46 - 4.10 8 4.92 4.10 - 5.74 29.96 -

Detailed Wave Spectra

Time Water Depth Wave Height Spectral Peak Period Average Wave Period Sampling Interval Wave Record
22:00 79 ft 6.56 ft 5.9 sec 4.9 sec 0.6 sec 2400 sec
00:00 79 ft 8.01 ft 7.1 sec 5.4 sec 0.6 sec 2400 sec
01:00 79 ft 9.55 ft 6.7 sec 5.9 sec 0.6 sec 2400 sec
02:00 79 ft 10.24 ft 7.1 sec 6.1 sec 0.6 sec 2400 sec
03:00 79 ft 10.17 ft 6.7 sec 6.1 sec 0.6 sec 2400 sec
05:00 79 ft 11.78 ft 9.1 sec 6.6 sec 0.6 sec 2400 sec
07:00 79 ft 12.01 ft 8.3 sec 6.6 sec 0.6 sec 2400 sec
08:00 79 ft 11.88 ft 9.1 sec 6.8 sec 0.6 sec 2400 sec
09:00 79 ft 10.79 ft 9.1 sec 6.3 sec 0.6 sec 2400 sec
11:00 79 ft 9.97 ft 9.1 sec 6.2 sec 0.6 sec 2400 sec
13:00 79 ft 10.66 ft 9.1 sec 6.2 sec 0.6 sec 2400 sec
15:00 79 ft 9.71 ft 9.1 sec 6.4 sec 0.6 sec 2400 sec
18:00 79 ft 8.96 ft 9.1 sec 6.1 sec 0.6 sec 2400 sec
22:00 79 ft 8.07 ft 5.6 sec 5.7 sec 0.6 sec 2400 sec
23:00 79 ft 6.96 ft 8.3 sec 5.6 sec 0.6 sec 2400 sec
02:00 79 ft 6.36 ft 8.3 sec 5.4 sec 0.6 sec 2400 sec